Franconia — 3FWI7 — position and weather

sailwx.info

Track history (hours):
 
Tides and Currents Weather Stations Pressure Air Temp Water Temp Dewpoint Dewpoint Depression Visibility Wind Speed Wind Dir Waves Ship Positions

Franconia

Last reported at 2017-Nov-23 06:56 UTC. Time now 2017-Nov-23 23:58 UTC.
Position N 47°53' W 006°35'.

Type: Cargo ship. MMSI: 351732000.

Date/timePositionNaut miles runAvg speedWind from/ knotsBaromVisibWave heightAir tempDewpointWater temp
2017-Nov-23 06:56N 47°53' W 006°35'74 8.2
2017-Nov-22 21:59N 48°57' W 005°39'  
2017-Nov-20 00:28N 51°18' E 003°14'0 0.0
2017-Nov-19 23:58N 51°18' E 003°14'0 0.0
2017-Nov-19 23:28N 51°18' E 003°14'0 0.0
2017-Nov-19 22:58N 51°18' E 003°14'0 0.0
2017-Nov-19 22:25N 51°18' E 003°14'0 0.0
2017-Nov-19 21:58N 51°18' E 003°14'0 0.0
2017-Nov-19 21:28N 51°18' E 003°14'0 0.0
2017-Nov-19 20:55N 51°18' E 003°14'0 0.0
2017-Nov-19 20:28N 51°18' E 003°14'0 0.0
2017-Nov-19 19:58N 51°18' E 003°14'0 0.0
2017-Nov-19 19:25N 51°18' E 003°14'0 0.0
2017-Nov-19 18:58N 51°18' E 003°14'0 0.0
2017-Nov-19 18:25N 51°18' E 003°14'0 0.0
2017-Nov-19 17:55N 51°18' E 003°14'0 0.0
2017-Nov-19 17:28N 51°18' E 003°14'0 0.0
2017-Nov-19 16:58N 51°18' E 003°14'0 0.0
2017-Nov-19 16:25N 51°18' E 003°14'0 0.0
2017-Nov-19 15:58N 51°18' E 003°14'0 0.0
2017-Nov-19 15:28N 51°18' E 003°14'0 0.0
2017-Nov-19 14:58N 51°18' E 003°14'0 0.0
2017-Nov-19 14:28N 51°18' E 003°14'0 0.0
2017-Nov-19 13:58N 51°18' E 003°14'0 0.0
2017-Nov-19 13:25N 51°18' E 003°14'0 0.0
2017-Nov-19 12:58N 51°18' E 003°14'0 0.0
2017-Nov-19 12:28N 51°18' E 003°14'0 0.0
2017-Nov-19 11:58N 51°18' E 003°14'0 0.0
2017-Nov-19 11:28N 51°18' E 003°14'1 1.6
2017-Nov-19 11:00N 51°19' E 003°13'1 2.1
2017-Nov-19 10:30N 51°20' E 003°13'0 0.2
2017-Nov-19 10:00N 51°20' E 003°13'3 5.3
2017-Nov-19 09:30N 51°22' E 003°11'612.7
2017-Nov-19 09:00N 51°25' E 003°01'713.7
2017-Nov-19 08:31N 51°25' E 002°50'510.7
2017-Nov-19 08:00N 51°22' E 002°43'3 5.8
2017-Nov-19 07:30N 51°22' E 002°38'2 4.7
2017-Nov-19 07:00N 51°22' E 002°34'4 7.0
2017-Nov-19 06:30N 51°22' E 002°29'2 4.8
2017-Nov-19 06:00N 51°20' E 002°25'4 8.8
2017-Nov-19 05:31N 51°18' E 002°19'612.3
2017-Nov-19 05:00N 51°18' E 002°10'714.0
2017-Nov-19 04:31N 51°23' E 002°01'611.2
2017-Nov-19 04:00N 51°28' E 002°02'713.4
2017-Nov-19 03:30N 51°34' E 002°08'11214.1
2017-Nov-18 19:37N 52°60' E 004°04'214.6
2017-Nov-18 19:29N 53°01' E 004°07'1314.1
2017-Nov-18 18:34N 53°10' E 004°23'13110.5
2017-Nov-18 06:05N 53°53' E 007°50'111.5
2017-Nov-18 05:59N 53°52' E 007°52'612.4
2017-Nov-18 05:30N 53°51' E 008°02'714.6
2017-Nov-18 05:00N 53°46' E 008°11'815.7
2017-Nov-18 04:30N 53°41' E 008°21'815.5
2017-Nov-18 04:00N 53°36' E 008°31'3 5.8
2017-Nov-18 03:30N 53°33' E 008°34'0 0.1
2017-Nov-18 03:00N 53°33' E 008°34'0 0.9
2017-Nov-18 02:28N 53°34' E 008°34'0 0.0
2017-Nov-18 01:58N 53°34' E 008°34'0 0.0
2017-Nov-18 01:28N 53°34' E 008°34'0 0.0
2017-Nov-18 00:58N 53°34' E 008°34'0 0.0
2017-Nov-18 00:28N 53°34' E 008°34'0 0.0
2017-Nov-17 23:56N 53°34' E 008°34'0 0.0
2017-Nov-17 23:28N 53°34' E 008°34'0 0.0
2017-Nov-17 22:58N 53°34' E 008°34'0 0.0
2017-Nov-17 22:25N 53°34' E 008°34'0 0.0
2017-Nov-17 21:58N 53°34' E 008°34'0 0.0
2017-Nov-17 21:28N 53°34' E 008°34'0 0.0
2017-Nov-17 20:58N 53°34' E 008°34'0 0.0
2017-Nov-17 20:28N 53°34' E 008°34'0 0.0
2017-Nov-17 19:58N 53°34' E 008°34'0 0.0
2017-Nov-17 19:28N 53°34' E 008°34'0 0.0
2017-Nov-17 18:58N 53°34' E 008°34'0 0.0
2017-Nov-17 18:28N 53°34' E 008°34'0 0.0
2017-Nov-17 17:58N 53°34' E 008°34'0 0.0
2017-Nov-17 17:28N 53°34' E 008°34'0 0.0
2017-Nov-17 16:58N 53°34' E 008°34'0 0.0
2017-Nov-17 16:28N 53°34' E 008°34'0 0.0
2017-Nov-17 15:58N 53°34' E 008°34'0 0.0
2017-Nov-17 15:28N 53°34' E 008°34'0 0.0
2017-Nov-17 14:58N 53°34' E 008°34'0 0.0
2017-Nov-17 14:28N 53°34' E 008°34'0 0.0
2017-Nov-17 13:58N 53°34' E 008°34'0 0.0
2017-Nov-17 13:28N 53°34' E 008°34'0 0.0
2017-Nov-17 12:58N 53°34' E 008°34'0 0.0
2017-Nov-17 12:28N 53°34' E 008°34'0 0.0
2017-Nov-17 11:58N 53°34' E 008°34'0 0.0
2017-Nov-17 11:28N 53°34' E 008°34'0 0.0
2017-Nov-17 10:58N 53°34' E 008°34'0 0.0
2017-Nov-17 10:28N 53°34' E 008°34'0 0.0
2017-Nov-17 09:58N 53°34' E 008°34'0 0.0
2017-Nov-17 09:28N 53°34' E 008°34'0 0.0
2017-Nov-17 08:58N 53°34' E 008°34'0 0.0
2017-Nov-17 08:28N 53°34' E 008°34'0 0.0
2017-Nov-17 07:58N 53°34' E 008°34'0 0.0
2017-Nov-17 07:28N 53°34' E 008°34'0 0.0
2017-Nov-17 06:58N 53°34' E 008°34'0 0.0
2017-Nov-17 06:28N 53°34' E 008°34'0 0.0
2017-Nov-17 06:00N 53°34' E 008°34'0 0.9
2017-Nov-17 05:30N 53°33' E 008°34'0 0.0
2017-Nov-17 05:01N 53°33' E 008°34'0 0.6
2017-Nov-17 04:31N 53°33' E 008°33'3 5.1
2017-Nov-17 04:00N 53°35' E 008°31'510.4
2017-Nov-17 03:30N 53°39' E 008°25'611.7
2017-Nov-17 03:00N 53°43' E 008°17'612.2
2017-Nov-17 02:30N 53°47' E 008°10'612.2
2017-Nov-17 02:00N 53°51' E 008°02'612.3
2017-Nov-17 01:30N 53°52' E 007°52'810.9
2017-Nov-17 00:44N 53°54' E 007°38'12513.8
2017-Nov-16 15:41N 53°04' E 004°25'416.2
2017-Nov-16 15:27N 53°01' E 004°22'716.3
2017-Nov-16 15:00N 52°54' E 004°17'2516.2
2017-Nov-16 13:27N 52°35' E 003°51'6916.0
2017-Nov-16 09:09N 51°45' E 002°34'814.3
2017-Nov-16 08:36N 51°38' E 002°27'114.0
2017-Nov-16 08:29N 51°37' E 002°25'714.0
2017-Nov-16 08:00N 51°32' E 002°18'713.6
2017-Nov-16 07:30N 51°27' E 002°11'612.6
2017-Nov-16 07:00N 51°21' E 002°07'713.1
2017-Nov-16 06:30N 51°15' E 002°05'612.3
2017-Nov-16 06:00N 51°11' E 001°57'612.5
2017-Nov-16 05:30N 51°08' E 001°48'612.4
2017-Nov-16 05:00N 51°04' E 001°41'612.5
2017-Nov-16 04:30N 50°60' E 001°33'712.6
2017-Nov-16 03:59N 50°54' E 001°28'713.2
2017-Nov-16 03:29N 50°48' E 001°25'2213.6
2017-Nov-16 01:52N 50°31' E 001°02'513.8
2017-Nov-16 01:30N 50°29' E 000°54'914.2
2017-Nov-16 00:50N 50°27' E 000°40'514.1
2017-Nov-16 00:30N 50°26' E 000°33'714.0
2017-Nov-16 00:00N 50°24' E 000°22'914.0
2017-Nov-15 23:23N 50°21' E 000°09'514.1
2017-Nov-15 23:00N 50°20' E 000°01'714.2
2017-Nov-15 22:30N 50°18' W 000°10'3415.2
2017-Nov-15 20:14N 50°09' W 001°02'416.8
2017-Nov-15 20:00N 50°08' W 001°07'917.1
2017-Nov-15 19:31N 50°06' W 001°20'917.7
2017-Nov-15 19:00N 50°04' W 001°34'918.1
2017-Nov-15 18:30N 50°01' W 001°47'918.4
2017-Nov-15 18:00N 49°58' W 002°01'918.2
2017-Nov-15 17:30N 49°56' W 002°14'2017.2
2017-Nov-15 16:21N 49°51' W 002°44'616.7
2017-Nov-15 16:01N 49°49' W 002°53'1016.4
2017-Nov-15 15:25N 49°45' W 003°06'816.2
2017-Nov-15 14:56N 49°41' W 003°16'9115.3
2017-Nov-15 08:59N 48°55' W 005°17'813.9
2017-Nov-15 08:24N 48°51' W 005°28'2213.7
2017-Nov-15 06:47N 48°33' W 005°48'1514.0
2017-Nov-15 05:44N 48°20' W 005°58'514.3
2017-Nov-15 05:24N 48°16' W 006°01'613.9
2017-Nov-15 05:00N 48°11' W 006°05'714.2
2017-Nov-15 04:30N 48°04' W 006°10'713.4
2017-Nov-15 04:00N 47°58' W 006°15'713.6
2017-Nov-15 03:28N 47°52' W 006°20'914.0
2017-Nov-15 02:50N 47°44' W 006°26'819.7
2017-Nov-15 02:25N 47°37' W 006°31'611.2
2017-Nov-15 01:52N 47°32' W 006°36'715.0
2017-Nov-15 01:22N 47°25' W 006°41'615.2
2017-Nov-15 00:59N 47°20' W 006°45'914.6
2017-Nov-15 00:21N 47°12' W 006°51'  
Track history (hours):
 
Tides and Currents Weather Stations Pressure Air Temp Water Temp Dewpoint Dewpoint Depression Visibility Wind Speed Wind Dir Waves Ship Positions

Franconia

Last reported at 2017-Nov-23 06:56 UTC. Time now 2017-Nov-23 23:58 UTC.
Position N 47°53' W 006°35'.

Type: Cargo ship. MMSI: 351732000.

Date/timePositionNaut miles runAvg speedWind from/ knotsBaromVisibWave heightAir tempDewpointWater temp
2017-Nov-23 06:56N 47°53' W 006°35'74 8.2
2017-Nov-22 21:59N 48°57' W 005°39'  
2017-Nov-20 00:28N 51°18' E 003°14'0 0.0
2017-Nov-19 23:58N 51°18' E 003°14'0 0.0
2017-Nov-19 23:28N 51°18' E 003°14'0 0.0
2017-Nov-19 22:58N 51°18' E 003°14'0 0.0
2017-Nov-19 22:25N 51°18' E 003°14'0 0.0
2017-Nov-19 21:58N 51°18' E 003°14'0 0.0
2017-Nov-19 21:28N 51°18' E 003°14'0 0.0
2017-Nov-19 20:55N 51°18' E 003°14'0 0.0
2017-Nov-19 20:28N 51°18' E 003°14'0 0.0
2017-Nov-19 19:58N 51°18' E 003°14'0 0.0
2017-Nov-19 19:25N 51°18' E 003°14'0 0.0
2017-Nov-19 18:58N 51°18' E 003°14'0 0.0
2017-Nov-19 18:25N 51°18' E 003°14'0 0.0
2017-Nov-19 17:55N 51°18' E 003°14'0 0.0
2017-Nov-19 17:28N 51°18' E 003°14'0 0.0
2017-Nov-19 16:58N 51°18' E 003°14'0 0.0
2017-Nov-19 16:25N 51°18' E 003°14'0 0.0
2017-Nov-19 15:58N 51°18' E 003°14'0 0.0
2017-Nov-19 15:28N 51°18' E 003°14'0 0.0
2017-Nov-19 14:58N 51°18' E 003°14'0 0.0
2017-Nov-19 14:28N 51°18' E 003°14'0 0.0
2017-Nov-19 13:58N 51°18' E 003°14'0 0.0
2017-Nov-19 13:25N 51°18' E 003°14'0 0.0
2017-Nov-19 12:58N 51°18' E 003°14'0 0.0
2017-Nov-19 12:28N 51°18' E 003°14'0 0.0
2017-Nov-19 11:58N 51°18' E 003°14'0 0.0
2017-Nov-19 11:28N 51°18' E 003°14'1 1.6
2017-Nov-19 11:00N 51°19' E 003°13'1 2.1
2017-Nov-19 10:30N 51°20' E 003°13'0 0.2
2017-Nov-19 10:00N 51°20' E 003°13'3 5.3
2017-Nov-19 09:30N 51°22' E 003°11'612.7
2017-Nov-19 09:00N 51°25' E 003°01'713.7
2017-Nov-19 08:31N 51°25' E 002°50'510.7
2017-Nov-19 08:00N 51°22' E 002°43'3 5.8
2017-Nov-19 07:30N 51°22' E 002°38'2 4.7
2017-Nov-19 07:00N 51°22' E 002°34'4 7.0
2017-Nov-19 06:30N 51°22' E 002°29'2 4.8
2017-Nov-19 06:00N 51°20' E 002°25'4 8.8
2017-Nov-19 05:31N 51°18' E 002°19'612.3
2017-Nov-19 05:00N 51°18' E 002°10'714.0
2017-Nov-19 04:31N 51°23' E 002°01'611.2
2017-Nov-19 04:00N 51°28' E 002°02'713.4
2017-Nov-19 03:30N 51°34' E 002°08'11214.1
2017-Nov-18 19:37N 52°60' E 004°04'214.6
2017-Nov-18 19:29N 53°01' E 004°07'1314.1
2017-Nov-18 18:34N 53°10' E 004°23'13110.5
2017-Nov-18 06:05N 53°53' E 007°50'111.5
2017-Nov-18 05:59N 53°52' E 007°52'612.4
2017-Nov-18 05:30N 53°51' E 008°02'714.6
2017-Nov-18 05:00N 53°46' E 008°11'815.7
2017-Nov-18 04:30N 53°41' E 008°21'815.5
2017-Nov-18 04:00N 53°36' E 008°31'3 5.8
2017-Nov-18 03:30N 53°33' E 008°34'0 0.1
2017-Nov-18 03:00N 53°33' E 008°34'0 0.9
2017-Nov-18 02:28N 53°34' E 008°34'0 0.0
2017-Nov-18 01:58N 53°34' E 008°34'0 0.0
2017-Nov-18 01:28N 53°34' E 008°34'0 0.0
2017-Nov-18 00:58N 53°34' E 008°34'0 0.0
2017-Nov-18 00:28N 53°34' E 008°34'0 0.0
2017-Nov-17 23:56N 53°34' E 008°34'0 0.0
2017-Nov-17 23:28N 53°34' E 008°34'0 0.0
2017-Nov-17 22:58N 53°34' E 008°34'0 0.0
2017-Nov-17 22:25N 53°34' E 008°34'0 0.0
2017-Nov-17 21:58N 53°34' E 008°34'0 0.0
2017-Nov-17 21:28N 53°34' E 008°34'0 0.0
2017-Nov-17 20:58N 53°34' E 008°34'0 0.0
2017-Nov-17 20:28N 53°34' E 008°34'0 0.0
2017-Nov-17 19:58N 53°34' E 008°34'0 0.0
2017-Nov-17 19:28N 53°34' E 008°34'0 0.0
2017-Nov-17 18:58N 53°34' E 008°34'0 0.0
2017-Nov-17 18:28N 53°34' E 008°34'0 0.0
2017-Nov-17 17:58N 53°34' E 008°34'0 0.0
2017-Nov-17 17:28N 53°34' E 008°34'0 0.0
2017-Nov-17 16:58N 53°34' E 008°34'0 0.0
2017-Nov-17 16:28N 53°34' E 008°34'0 0.0
2017-Nov-17 15:58N 53°34' E 008°34'0 0.0
2017-Nov-17 15:28N 53°34' E 008°34'0 0.0
2017-Nov-17 14:58N 53°34' E 008°34'0 0.0
2017-Nov-17 14:28N 53°34' E 008°34'0 0.0
2017-Nov-17 13:58N 53°34' E 008°34'0 0.0
2017-Nov-17 13:28N 53°34' E 008°34'0 0.0
2017-Nov-17 12:58N 53°34' E 008°34'0 0.0
2017-Nov-17 12:28N 53°34' E 008°34'0 0.0
2017-Nov-17 11:58N 53°34' E 008°34'0 0.0
2017-Nov-17 11:28N 53°34' E 008°34'0 0.0
2017-Nov-17 10:58N 53°34' E 008°34'0 0.0
2017-Nov-17 10:28N 53°34' E 008°34'0 0.0
2017-Nov-17 09:58N 53°34' E 008°34'0 0.0
2017-Nov-17 09:28N 53°34' E 008°34'0 0.0
2017-Nov-17 08:58N 53°34' E 008°34'0 0.0
2017-Nov-17 08:28N 53°34' E 008°34'0 0.0
2017-Nov-17 07:58N 53°34' E 008°34'0 0.0
2017-Nov-17 07:28N 53°34' E 008°34'0 0.0
2017-Nov-17 06:58N 53°34' E 008°34'0 0.0
2017-Nov-17 06:28N 53°34' E 008°34'0 0.0
2017-Nov-17 06:00N 53°34' E 008°34'0 0.9
2017-Nov-17 05:30N 53°33' E 008°34'0 0.0
2017-Nov-17 05:01N 53°33' E 008°34'0 0.6
2017-Nov-17 04:31N 53°33' E 008°33'3 5.1
2017-Nov-17 04:00N 53°35' E 008°31'510.4
2017-Nov-17 03:30N 53°39' E 008°25'611.7
2017-Nov-17 03:00N 53°43' E 008°17'612.2
2017-Nov-17 02:30N 53°47' E 008°10'612.2
2017-Nov-17 02:00N 53°51' E 008°02'612.3
2017-Nov-17 01:30N 53°52' E 007°52'810.9
2017-Nov-17 00:44N 53°54' E 007°38'12513.8
2017-Nov-16 15:41N 53°04' E 004°25'416.2
2017-Nov-16 15:27N 53°01' E 004°22'716.3
2017-Nov-16 15:00N 52°54' E 004°17'2516.2
2017-Nov-16 13:27N 52°35' E 003°51'6916.0
2017-Nov-16 09:09N 51°45' E 002°34'814.3
2017-Nov-16 08:36N 51°38' E 002°27'114.0
2017-Nov-16 08:29N 51°37' E 002°25'714.0
2017-Nov-16 08:00N 51°32' E 002°18'713.6
2017-Nov-16 07:30N 51°27' E 002°11'612.6
2017-Nov-16 07:00N 51°21' E 002°07'713.1
2017-Nov-16 06:30N 51°15' E 002°05'612.3
2017-Nov-16 06:00N 51°11' E 001°57'612.5
2017-Nov-16 05:30N 51°08' E 001°48'612.4
2017-Nov-16 05:00N 51°04' E 001°41'612.5
2017-Nov-16 04:30N 50°60' E 001°33'712.6
2017-Nov-16 03:59N 50°54' E 001°28'713.2
2017-Nov-16 03:29N 50°48' E 001°25'2213.6
2017-Nov-16 01:52N 50°31' E 001°02'513.8
2017-Nov-16 01:30N 50°29' E 000°54'914.2
2017-Nov-16 00:50N 50°27' E 000°40'514.1
2017-Nov-16 00:30N 50°26' E 000°33'714.0
2017-Nov-16 00:00N 50°24' E 000°22'914.0
2017-Nov-15 23:23N 50°21' E 000°09'514.1
2017-Nov-15 23:00N 50°20' E 000°01'714.2
2017-Nov-15 22:30N 50°18' W 000°10'3415.2
2017-Nov-15 20:14N 50°09' W 001°02'416.8
2017-Nov-15 20:00N 50°08' W 001°07'917.1
2017-Nov-15 19:31N 50°06' W 001°20'917.7
2017-Nov-15 19:00N 50°04' W 001°34'918.1
2017-Nov-15 18:30N 50°01' W 001°47'918.4
2017-Nov-15 18:00N 49°58' W 002°01'918.2
2017-Nov-15 17:30N 49°56' W 002°14'2017.2
2017-Nov-15 16:21N 49°51' W 002°44'616.7
2017-Nov-15 16:01N 49°49' W 002°53'1016.4
2017-Nov-15 15:25N 49°45' W 003°06'816.2
2017-Nov-15 14:56N 49°41' W 003°16'9115.3
2017-Nov-15 08:59N 48°55' W 005°17'813.9
2017-Nov-15 08:24N 48°51' W 005°28'2213.7
2017-Nov-15 06:47N 48°33' W 005°48'1514.0
2017-Nov-15 05:44N 48°20' W 005°58'514.3
2017-Nov-15 05:24N 48°16' W 006°01'613.9
2017-Nov-15 05:00N 48°11' W 006°05'714.2
2017-Nov-15 04:30N 48°04' W 006°10'713.4
2017-Nov-15 04:00N 47°58' W 006°15'713.6
2017-Nov-15 03:28N 47°52' W 006°20'914.0
2017-Nov-15 02:50N 47°44' W 006°26'819.7
2017-Nov-15 02:25N 47°37' W 006°31'611.2
2017-Nov-15 01:52N 47°32' W 006°36'715.0
2017-Nov-15 01:22N 47°25' W 006°41'615.2
2017-Nov-15 00:59N 47°20' W 006°45'914.6
2017-Nov-15 00:21N 47°12' W 006°51'  

Dump ship's entire track history